createdAt,value
2023-04-13T00:00:47.937Z,99675.06
2023-04-13T00:03:17.500Z,99675.81
2023-04-13T00:05:46.292Z,99671.47
2023-04-13T00:08:13.609Z,99677.59
2023-04-13T00:10:41.353Z,99681.06
2023-04-13T00:13:10.527Z,99681.91
2023-04-13T00:15:42.001Z,99686.25
2023-04-13T00:18:10.928Z,99674.94
2023-04-13T00:20:39.032Z,99682.75
2023-04-13T00:23:05.986Z,99681.03
2023-04-13T00:25:32.861Z,99692.34
2023-04-13T00:28:03.429Z,99684.50
2023-04-13T00:30:30.402Z,99687.06
2023-04-13T00:32:57.404Z,99683.59
2023-04-13T00:35:26.892Z,99680.97
2023-04-13T00:37:54.134Z,99674.84
2023-04-13T00:40:23.085Z,99670.44
2023-04-13T00:42:50.769Z,99665.19
2023-04-13T00:45:19.007Z,99664.38
2023-04-13T00:47:47.857Z,99662.63
2023-04-13T00:50:19.066Z,99661.84
2023-04-13T00:52:47.450Z,99661.09
2023-04-13T00:55:15.003Z,99662.03
2023-04-13T00:57:42.123Z,99656.88
2023-04-13T01:00:10.069Z,99651.81
2023-04-13T01:02:42.303Z,99665.63
2023-04-13T01:05:12.751Z,99668.31
2023-04-13T01:08:08.933Z,99678.78
2023-04-13T01:10:51.492Z,99680.44
2023-04-13T01:13:40.342Z,99670.94
2023-04-13T01:16:19.403Z,99674.47
2023-04-13T01:18:52.548Z,99679.53
2023-04-13T01:21:25.893Z,99688.22
2023-04-13T01:24:01.438Z,99701.25
2023-04-13T01:26:54.890Z,99721.25
2023-04-13T01:29:25.923Z,99725.59
2023-04-13T01:31:54.981Z,99723.84
2023-04-13T01:34:23.325Z,99724.72
2023-04-13T01:36:51.042Z,99741.28
2023-04-13T01:39:20.471Z,99739.53
2023-04-13T01:41:50.802Z,99738.75
2023-04-13T01:44:18.286Z,99735.22
2023-04-13T01:46:51.405Z,99728.38
2023-04-13T01:50:00.566Z,99734.44
2023-04-13T01:52:34.239Z,99732.69
2023-04-13T01:55:05.526Z,99740.53
2023-04-13T01:57:37.116Z,99744.94
2023-04-13T02:00:14.264Z,99748.47
2023-04-13T02:02:45.218Z,99753.72
2023-04-13T02:05:12.602Z,99755.50
2023-04-13T02:07:41.659Z,99755.50
2023-04-13T02:10:09.453Z,99760.72
2023-04-13T02:12:36.388Z,99765.94
2023-04-13T02:15:06.653Z,99788.59
2023-04-13T02:17:33.661Z,99792.06
2023-04-13T02:20:01.104Z,99805.19
2023-04-13T02:22:28.993Z,99807.81
2023-04-13T02:24:56.674Z,99802.66
2023-04-13T02:27:24.277Z,99806.16
2023-04-13T02:29:52.384Z,99814.88
2023-04-13T02:32:19.363Z,99808.00
2023-04-13T02:34:47.441Z,99807.09
2023-04-13T02:37:16.026Z,99804.53
2023-04-13T02:39:43.165Z,99808.03
2023-04-13T02:42:10.438Z,99810.63
2023-04-13T02:44:38.638Z,99812.34
2023-04-13T02:47:06.995Z,99806.25
2023-04-13T02:49:34.126Z,99808.03
2023-04-13T02:52:21.575Z,99814.16
2023-04-13T02:54:58.415Z,99803.84
2023-04-13T02:57:30.890Z,99813.41
2023-04-13T03:00:00.156Z,99816.13
2023-04-13T03:02:37.961Z,99827.47
2023-04-13T03:05:06.396Z,99824.91
2023-04-13T03:07:34.226Z,99816.31
2023-04-13T03:10:05.328Z,99816.41
2023-04-13T03:12:33.101Z,99814.69
2023-04-13T03:15:04.808Z,99816.47
2023-04-13T03:17:32.294Z,99829.50
2023-04-13T03:19:59.791Z,99839.09
2023-04-13T03:22:30.497Z,99844.34
2023-04-13T03:25:01.533Z,99845.22
2023-04-13T03:27:36.306Z,99840.91
2023-04-13T03:30:04.700Z,99835.75
2023-04-13T03:32:39.097Z,99842.69
2023-04-13T03:35:06.583Z,99844.44
2023-04-13T03:37:40.578Z,99845.28
2023-04-13T03:40:15.945Z,99854.81
2023-04-13T03:42:49.934Z,99845.22
2023-04-13T03:45:17.994Z,99853.91
2023-04-13T03:47:45.349Z,99850.38
2023-04-13T03:50:12.316Z,99851.28
2023-04-13T03:52:39.641Z,99845.16
2023-04-13T03:55:06.954Z,99852.13
2023-04-13T03:57:39.134Z,99857.34
2023-04-13T04:00:14.035Z,99863.47
2023-04-13T04:02:44.685Z,99868.75
2023-04-13T04:05:17.124Z,99880.09
2023-04-13T04:07:46.235Z,99888.84
2023-04-13T04:10:13.160Z,99892.41
2023-04-13T04:12:40.125Z,99902.94
2023-04-13T04:15:08.959Z,99909.16
2023-04-13T04:17:39.922Z,99906.69
2023-04-13T04:20:08.213Z,99914.56
2023-04-13T04:22:36.588Z,99918.97
2023-04-13T04:25:04.583Z,99919.06
2023-04-13T04:27:38.281Z,99913.94
2023-04-13T04:30:10.855Z,99914.88
2023-04-13T04:32:38.158Z,99926.25
2023-04-13T04:35:12.385Z,99917.66
2023-04-13T04:37:46.073Z,99928.94
2023-04-13T04:40:17.021Z,99931.56
2023-04-13T04:42:44.304Z,99922.09
2023-04-13T04:45:27.403Z,99932.50
2023-04-13T04:47:57.503Z,99935.13
2023-04-13T04:50:26.299Z,99936.00
2023-04-13T04:53:13.798Z,99941.22
2023-04-13T04:55:41.417Z,99947.28
2023-04-13T04:58:13.426Z,99947.31
2023-04-13T05:00:45.883Z,99954.28
2023-04-13T05:03:15.726Z,99949.94
2023-04-13T05:05:47.688Z,99944.75
2023-04-13T05:08:21.160Z,99943.88
2023-04-13T05:10:50.161Z,99944.78
2023-04-13T05:13:18.903Z,99942.16
2023-04-13T05:15:56.093Z,99946.53
2023-04-13T05:18:23.022Z,99954.34
2023-04-13T05:20:49.919Z,99965.63
2023-04-13T05:23:18.073Z,99972.56
2023-04-13T05:25:52.701Z,99973.38
2023-04-13T05:28:21.867Z,99962.13
2023-04-13T05:30:49.519Z,99964.72
2023-04-13T05:33:17.170Z,99969.94
2023-04-13T05:35:45.549Z,99963.84
2023-04-13T05:38:12.728Z,99964.69
2023-04-13T05:40:40.729Z,99962.94
2023-04-13T05:43:07.793Z,99968.16
2023-04-13T05:45:40.486Z,99959.44
2023-04-13T05:48:11.892Z,99967.25
2023-04-13T05:50:38.846Z,99976.78
2023-04-13T05:53:06.629Z,99970.69
2023-04-13T05:55:45.166Z,99978.47
2023-04-13T05:58:14.218Z,99981.88
2023-04-13T06:00:41.376Z,99975.81
2023-04-13T06:03:12.987Z,99987.03
2023-04-13T06:05:40.096Z,100001.75
2023-04-13T06:08:10.502Z,99996.50
2023-04-13T06:10:41.310Z,99999.09
2023-04-13T06:13:09.729Z,100005.13
2023-04-13T06:15:38.701Z,100012.03
2023-04-13T06:18:05.981Z,100019.00
2023-04-13T06:20:33.707Z,100010.28
2023-04-13T06:23:00.912Z,100018.97
2023-04-13T06:25:28.014Z,100024.19
2023-04-13T06:27:55.444Z,100036.34
2023-04-13T06:30:22.496Z,100031.13
2023-04-13T06:32:53.619Z,100037.22
2023-04-13T06:35:23.323Z,100045.03
2023-04-13T06:37:51.696Z,100042.38
2023-04-13T06:40:25.696Z,100046.75
2023-04-13T06:43:03.854Z,100063.19
2023-04-13T06:45:37.537Z,100058.81
2023-04-13T06:48:08.813Z,100063.13
2023-04-13T06:50:37.950Z,100065.66
2023-04-13T06:53:05.887Z,100061.25
2023-04-13T06:55:33.505Z,100066.44
2023-04-13T06:58:01.254Z,100073.34
2023-04-13T07:00:30.481Z,100078.53
2023-04-13T07:03:00.002Z,100078.47
2023-04-13T07:05:27.182Z,100083.63
2023-04-13T07:07:58.761Z,100086.19
2023-04-13T07:10:26.541Z,100070.59
2023-04-13T07:12:55.584Z,100087.03
2023-04-13T07:15:25.641Z,100096.63
2023-04-13T07:17:55.881Z,100093.16
2023-04-13T07:20:22.796Z,100087.06
2023-04-13T07:22:49.690Z,100087.03
2023-04-13T07:25:16.659Z,100086.16
2023-04-13T07:27:44.417Z,100087.84
2023-04-13T07:30:11.776Z,100085.19
2023-04-13T07:32:42.724Z,100079.09
2023-04-13T07:35:10.658Z,100077.28
2023-04-13T07:37:42.224Z,100091.25
2023-04-13T07:40:11.653Z,100092.94
2023-04-13T07:42:40.665Z,100094.69
2023-04-13T07:45:10.854Z,100104.19
2023-04-13T07:47:38.043Z,100109.41
2023-04-13T07:50:09.410Z,100103.22
2023-04-13T07:52:37.033Z,100104.84
2023-04-13T07:55:04.488Z,100099.53
2023-04-13T07:57:36.271Z,100108.06
2023-04-13T08:00:06.212Z,100104.53
2023-04-13T08:02:41.617Z,100110.50
2023-04-13T08:05:12.474Z,100113.88
2023-04-13T08:07:39.958Z,100110.28
2023-04-13T08:10:08.461Z,100105.78
2023-04-13T08:12:35.309Z,100113.44
2023-04-13T08:15:02.400Z,100113.31
2023-04-13T08:17:29.705Z,100108.00
2023-04-13T08:19:56.938Z,100113.94
2023-04-13T08:22:23.978Z,100120.84
2023-04-13T08:24:50.856Z,100117.28
2023-04-13T08:27:17.781Z,100130.25
2023-04-13T08:29:46.475Z,100124.94
2023-04-13T08:32:13.790Z,100122.19
2023-04-13T08:34:40.832Z,100129.06
2023-04-13T08:37:07.907Z,100130.75
2023-04-13T08:39:37.584Z,100132.44
2023-04-13T08:42:05.272Z,100125.38
2023-04-13T08:44:40.200Z,100123.63
2023-04-13T08:47:10.807Z,100136.47
2023-04-13T08:49:39.439Z,100143.28
2023-04-13T08:52:18.081Z,100142.25
2023-04-13T08:54:48.904Z,100141.19
2023-04-13T08:57:23.710Z,100144.53
2023-04-13T08:59:54.671Z,100145.31
2023-04-13T09:02:28.880Z,100153.91
2023-04-13T09:05:06.230Z,100144.16
2023-04-13T09:07:36.771Z,100149.25
2023-04-13T09:10:09.901Z,100143.81
2023-04-13T09:12:41.547Z,100149.66
2023-04-13T09:15:11.908Z,100150.25
2023-04-13T09:17:47.571Z,100149.22
2023-04-13T09:20:22.151Z,100152.44
2023-04-13T09:22:50.643Z,100151.47
2023-04-13T09:25:27.013Z,100156.56
2023-04-13T09:27:59.828Z,100160.84
2023-04-13T09:30:28.043Z,100163.41
2023-04-13T09:33:08.091Z,100155.63
2023-04-13T09:35:36.091Z,100165.19
2023-04-13T09:38:05.060Z,100166.94
2023-04-13T09:40:32.433Z,100173.06
2023-04-13T09:43:01.039Z,100175.66
2023-04-13T09:45:38.694Z,100172.19
2023-04-13T09:48:17.503Z,100170.47
2023-04-13T09:50:44.734Z,100169.56
2023-04-13T09:53:11.638Z,100188.69
2023-04-13T09:55:39.597Z,100195.63
2023-04-13T09:58:17.420Z,100193.09
2023-04-13T10:00:46.460Z,100186.03
2023-04-13T10:03:16.375Z,100196.53
2023-04-13T10:05:58.809Z,100204.31
2023-04-13T10:08:37.424Z,100201.50
2023-04-13T10:11:14.321Z,100204.94
2023-04-13T10:13:56.707Z,100201.41
2023-04-13T10:16:53.890Z,100207.47
2023-04-13T10:19:24.071Z,100205.50
2023-04-13T10:21:52.807Z,100207.13
2023-04-13T10:24:21.424Z,100203.44
2023-04-13T10:26:54.226Z,100205.00
2023-04-13T10:29:29.165Z,100210.03
2023-04-13T10:32:02.960Z,100211.53
2023-04-13T10:34:32.725Z,100204.22
2023-04-13T10:37:03.820Z,100213.72
2023-04-13T10:39:34.255Z,100217.19
2023-04-13T10:42:06.515Z,100215.44
2023-04-13T10:44:51.418Z,100222.47
2023-04-13T10:47:21.399Z,100217.22
2023-04-13T10:49:50.487Z,100218.06
2023-04-13T10:52:18.068Z,100221.44
2023-04-13T10:54:45.200Z,100217.84
2023-04-13T10:57:12.783Z,100222.91
2023-04-13T10:59:57.991Z,100213.91
2023-04-13T11:02:31.767Z,100222.31
2023-04-13T11:04:59.604Z,100229.25
2023-04-13T11:07:26.863Z,100228.38
2023-04-13T11:12:28.366Z,100228.38
2023-04-13T11:14:55.386Z,100232.81
2023-04-13T11:17:22.595Z,100225.09
2023-04-13T11:19:51.298Z,100223.34
2023-04-13T11:22:19.900Z,100222.59
2023-04-13T11:24:50.061Z,100217.31
2023-04-13T11:27:17.671Z,100221.75
2023-04-13T11:29:44.993Z,100231.41
2023-04-13T11:32:18.990Z,100235.81
2023-04-13T11:34:49.357Z,100252.38
2023-04-13T11:37:16.414Z,100243.59
2023-04-13T11:39:46.374Z,100245.28
2023-04-13T11:42:13.502Z,100248.66
2023-04-13T11:44:42.683Z,100252.00
2023-04-13T11:47:13.149Z,100258.81
2023-04-13T11:49:47.148Z,100264.81
2023-04-13T11:52:14.470Z,100267.38
2023-04-13T11:54:42.968Z,100271.66
2023-04-13T11:57:10.219Z,100272.50
2023-04-13T11:59:38.686Z,100266.22
2023-04-13T12:02:15.517Z,100271.31
2023-04-13T12:04:49.117Z,100277.44
2023-04-13T12:07:16.601Z,100285.19
2023-04-13T12:15:15.377Z,100292.16
2023-04-13T12:17:59.947Z,100298.38
2023-04-13T12:20:39.872Z,100294.06
2023-04-13T12:23:25.182Z,100292.34
2023-04-13T12:28:37.878Z,100288.81
2023-04-13T12:31:10.323Z,100298.38
2023-04-13T12:33:37.348Z,100295.75
2023-04-13T12:36:06.675Z,100298.38
2023-04-13T12:38:34.552Z,100308.03
2023-04-13T12:41:02.502Z,100298.56
2023-04-13T12:43:29.978Z,100306.38
2023-04-13T12:45:57.269Z,100309.91
2023-04-13T12:48:24.187Z,100308.16
2023-04-13T12:50:51.272Z,100307.31
2023-04-13T12:53:18.163Z,100305.59
2023-04-13T12:55:45.095Z,100298.56
2023-04-13T12:58:12.063Z,100297.53
2023-04-13T13:00:39.008Z,100298.16
2023-04-13T13:03:13.759Z,100299.59
2023-04-13T13:05:42.358Z,100295.84
2023-04-13T13:08:09.584Z,100300.91
2023-04-13T13:10:37.435Z,100307.84
2023-04-13T13:13:06.171Z,100309.53
2023-04-13T13:15:33.370Z,100303.34
2023-04-13T13:18:04.037Z,100291.97
2023-04-13T13:20:31.235Z,100299.72
2023-04-13T13:22:58.257Z,100304.88
2023-04-13T13:25:25.251Z,100299.59
2023-04-13T13:30:21.971Z,100291.63
2023-04-13T13:32:49.001Z,100297.63
2023-04-13T13:35:16.718Z,100295.78
2023-04-13T13:37:43.748Z,100300.94
2023-04-13T13:40:13.940Z,100299.06
2023-04-13T13:45:13.259Z,100310.16
2023-04-13T13:47:40.207Z,100293.50
2023-04-13T13:50:09.104Z,100290.72
2023-04-13T13:52:51.574Z,100301.03
2023-04-13T13:55:24.019Z,100310.59
2023-04-13T13:57:51.010Z,100303.44
2023-04-13T14:00:19.659Z,100313.03
2023-04-13T14:02:47.666Z,100318.97
2023-04-13T14:05:14.717Z,100324.84
2023-04-13T14:07:43.488Z,100329.03
2023-04-13T14:10:11.732Z,100334.09
2023-04-13T14:12:40.625Z,100328.75
2023-04-13T14:15:12.327Z,100333.78
2023-04-13T14:17:39.976Z,100331.97
2023-04-13T14:20:11.958Z,100335.53
2023-04-13T14:22:41.243Z,100340.00
2023-04-13T14:25:12.223Z,100337.34
2023-04-13T14:27:39.684Z,100334.84
2023-04-13T14:30:07.710Z,100333.06
2023-04-13T14:32:34.847Z,100329.50
2023-04-13T14:35:02.134Z,100325.97
2023-04-13T14:37:29.236Z,100325.78
2023-04-13T14:39:56.410Z,100336.25
2023-04-13T14:42:29.698Z,100337.03
2023-04-13T14:44:58.038Z,100344.19
2023-04-13T14:47:25.053Z,100348.75
2023-04-13T14:49:52.260Z,100351.56
2023-04-13T14:52:19.812Z,100351.72
2023-04-13T14:54:47.044Z,100350.09
2023-04-13T14:57:14.143Z,100364.13
2023-04-13T14:59:41.129Z,100363.25
2023-04-13T15:02:08.568Z,100359.63
2023-04-13T15:04:37.247Z,100375.25
2023-04-13T15:07:04.331Z,100356.69
2023-04-13T15:09:31.671Z,100363.66
2023-04-13T15:11:58.574Z,100361.81
2023-04-13T15:14:25.558Z,100366.25
2023-04-13T15:16:52.590Z,100367.16
2023-04-13T15:19:19.562Z,100370.75
2023-04-13T15:21:46.438Z,100381.44
2023-04-13T15:24:13.328Z,100381.56
2023-04-13T15:26:41.853Z,100376.41
2023-04-13T15:29:09.632Z,100386.94
2023-04-13T15:31:38.815Z,100391.41
2023-04-13T15:34:08.397Z,100381.13
2023-04-13T15:36:36.440Z,100396.03
2023-04-13T15:39:04.590Z,100388.31
2023-04-13T15:41:32.112Z,100390.13
2023-04-13T15:44:00.299Z,100393.69
2023-04-13T15:46:27.644Z,100391.19
2023-04-13T15:48:55.987Z,100393.81
2023-04-13T15:51:23.548Z,100386.03
2023-04-13T15:53:50.580Z,100393.97
2023-04-13T15:56:17.522Z,100390.50
2023-04-13T15:58:44.508Z,100397.63
2023-04-13T16:01:13.131Z,100395.03
2023-04-13T16:03:40.983Z,100395.16
2023-04-13T16:06:08.667Z,100394.50
2023-04-13T16:08:35.653Z,100393.72
2023-04-13T16:11:02.590Z,100399.22
2023-04-13T16:13:48.755Z,100415.03
2023-04-13T16:16:16.861Z,100428.38
2023-04-13T16:18:43.983Z,100405.94
2023-04-13T16:21:11.075Z,100418.09
2023-04-13T16:23:38.304Z,100420.00
2023-04-13T16:26:06.295Z,100428.81
2023-04-13T16:28:34.498Z,100445.59
2023-04-13T16:31:01.538Z,100439.66
2023-04-13T16:33:29.780Z,100459.84
2023-04-13T16:35:56.695Z,100467.81
2023-04-13T16:38:23.586Z,100457.34
2023-04-13T16:40:50.917Z,100453.09
2023-04-13T16:43:17.825Z,100451.44
2023-04-13T16:45:44.899Z,100460.19
2023-04-13T16:48:12.065Z,100468.91
2023-04-13T16:50:39.055Z,100477.56
2023-04-13T16:53:06.269Z,100473.09
2023-04-13T16:55:33.196Z,100469.50
2023-04-13T16:58:00.103Z,100470.38
2023-04-13T17:00:27.051Z,100468.38
2023-04-13T17:02:54.131Z,100483.06
2023-04-13T17:05:21.370Z,100484.63
2023-04-13T17:07:48.290Z,100489.69
2023-04-13T17:10:17.377Z,100481.63
2023-04-13T17:12:44.398Z,100491.84
2023-04-13T17:15:11.368Z,100492.59
2023-04-13T17:17:38.760Z,100499.59
2023-04-13T17:20:06.910Z,100501.44
2023-04-13T17:22:33.807Z,100505.84
2023-04-13T17:25:01.045Z,100509.53
2023-04-13T17:27:28.048Z,100500.09
2023-04-13T17:29:55.082Z,100498.72
2023-04-13T17:32:22.372Z,100519.78
2023-04-13T17:34:50.238Z,100524.41
2023-04-13T17:37:18.015Z,100518.50
2023-04-13T17:39:49.533Z,100535.34
2023-04-13T17:42:17.481Z,100528.63
2023-04-13T17:44:44.646Z,100530.63
2023-04-13T17:47:11.633Z,100539.66
2023-04-13T17:49:38.620Z,100538.06
2023-04-13T17:52:06.589Z,100534.81
2023-04-13T17:54:33.541Z,100544.63
2023-04-13T17:57:01.794Z,100551.84
2023-04-13T17:59:28.734Z,100550.25
2023-04-13T18:01:56.129Z,100557.44
2023-04-13T18:04:23.394Z,100547.09
2023-04-13T18:06:50.688Z,100571.81
2023-04-13T18:09:18.457Z,100566.78
2023-04-13T18:11:45.504Z,100573.94
2023-04-13T18:14:15.151Z,100573.25
2023-04-13T18:16:42.568Z,100578.66
2023-04-13T18:19:09.533Z,100577.94
2023-04-13T18:21:37.158Z,100580.72
2023-04-13T18:24:04.285Z,100586.03
2023-04-13T18:26:31.166Z,100587.03
2023-04-13T18:28:58.095Z,100586.25
2023-04-13T18:31:24.994Z,100586.34
2023-04-13T18:33:52.084Z,100587.34
2023-04-13T18:36:19.228Z,100595.34
2023-04-13T18:38:46.636Z,100589.34
2023-04-13T18:41:13.796Z,100594.72
2023-04-13T18:43:40.851Z,100597.47
2023-04-13T18:46:08.279Z,100581.16
2023-04-13T18:48:35.773Z,100596.13
2023-04-13T18:51:03.332Z,100589.34
2023-04-13T18:53:31.037Z,100593.84
2023-04-13T18:55:58.873Z,100593.06
2023-04-13T18:58:26.416Z,100593.16
2023-04-13T19:00:53.432Z,100591.50
2023-04-13T19:03:20.586Z,100597.63
2023-04-13T19:05:47.583Z,100605.59
2023-04-13T19:08:15.546Z,100599.59
2023-04-13T19:10:43.359Z,100610.06
2023-04-13T19:13:10.413Z,100612.72
2023-04-13T19:15:37.341Z,100604.06
2023-04-13T19:18:04.582Z,100618.09
2023-04-13T19:20:31.753Z,100619.00
2023-04-13T19:22:58.672Z,100626.03
2023-04-13T19:25:25.667Z,100622.66
2023-04-13T19:27:52.580Z,100634.88
2023-04-13T19:30:19.784Z,100635.81
2023-04-13T19:32:49.266Z,100641.94
2023-04-13T19:35:16.961Z,100634.19
2023-04-13T19:37:43.868Z,100646.41
2023-04-13T19:40:14.074Z,100662.16
2023-04-13T19:42:45.830Z,100657.84
2023-04-13T19:45:14.504Z,100659.63
2023-04-13T19:47:42.329Z,100654.41
2023-04-13T19:50:12.986Z,100664.94
2023-04-13T19:52:41.608Z,100667.56
2023-04-13T19:55:10.450Z,100671.94
2023-04-13T19:57:41.962Z,100682.44
2023-04-13T20:00:20.256Z,100676.38
2023-04-13T20:02:50.107Z,100680.78
2023-04-13T20:05:18.689Z,100680.84
2023-04-13T20:07:45.616Z,100675.63
2023-04-13T20:10:12.692Z,100682.59
2023-04-13T20:12:40.021Z,100697.44
2023-04-13T20:15:07.704Z,100696.59
2023-04-13T20:17:34.794Z,100705.31
2023-04-13T20:20:01.730Z,100707.97
2023-04-13T20:22:29.052Z,100704.47
2023-04-13T20:24:55.954Z,100708.84
2023-04-13T20:27:22.976Z,100708.84
2023-04-13T20:29:51.918Z,100711.47
2023-04-13T20:32:18.841Z,100712.34
2023-04-13T20:34:45.764Z,100713.22
2023-04-13T20:37:14.310Z,100725.38
2023-04-13T20:39:50.554Z,100725.41
2023-04-13T20:42:22.426Z,100734.97
2023-04-13T20:44:57.529Z,100730.63
2023-04-13T20:47:31.007Z,100729.75
2023-04-13T20:49:59.950Z,100732.34
2023-04-13T20:52:29.956Z,100731.50
2023-04-13T20:54:57.255Z,100734.09
2023-04-13T20:57:24.425Z,100729.75
2023-04-13T20:59:52.111Z,100728.88
2023-04-13T21:02:19.055Z,100731.50
2023-04-13T21:04:46.753Z,100721.06
2023-04-13T21:07:15.192Z,100730.63
2023-04-13T21:09:42.230Z,100722.78
2023-04-13T21:12:09.141Z,100729.75
2023-04-13T21:14:36.100Z,100714.09
2023-04-13T21:17:02.992Z,100718.44
2023-04-13T21:19:29.879Z,100714.09
2023-04-13T21:21:57.512Z,100718.44
2023-04-13T21:24:24.518Z,100722.78
2023-04-13T21:26:51.460Z,100722.75
2023-04-13T21:29:20.040Z,100721.91
2023-04-13T21:31:47.925Z,100721.03
2023-04-13T21:34:15.607Z,100721.88
2023-04-13T21:39:16.407Z,100721.88
2023-04-13T21:41:43.261Z,100714.91
2023-04-13T21:44:26.257Z,100704.50
2023-04-13T21:46:56.032Z,100709.69
2023-04-13T21:49:22.965Z,100714.91
2023-04-13T21:51:49.843Z,100715.78
2023-04-13T21:54:16.753Z,100718.34
2023-04-13T21:56:43.653Z,100711.41
2023-04-13T21:59:10.573Z,100707.00
2023-04-13T22:01:37.487Z,100701.72
2023-04-13T22:04:04.528Z,100706.84
2023-04-13T22:06:32.573Z,100704.16
2023-04-13T22:08:59.737Z,100714.50
2023-04-13T22:11:26.768Z,100704.03
2023-04-13T22:13:53.676Z,100705.72
2023-04-13T22:16:20.670Z,100701.41
2023-04-13T22:18:47.599Z,100704.03
2023-04-13T22:21:14.485Z,100703.19
2023-04-13T22:23:41.362Z,100711.06
2023-04-13T22:26:08.224Z,100708.44
2023-04-13T22:28:35.196Z,100718.00
2023-04-13T22:31:10.105Z,100717.16
2023-04-13T22:33:37.403Z,100698.88
2023-04-13T22:36:05.925Z,100711.03
2023-04-13T22:38:32.862Z,100704.97
2023-04-13T22:41:05.414Z,100705.78
2023-04-13T22:43:32.282Z,100711.88
2023-04-13T22:45:59.896Z,100717.03
2023-04-13T22:48:30.353Z,100713.53
2023-04-13T22:50:58.596Z,100710.03
2023-04-13T22:53:26.097Z,100713.47
2023-04-13T22:55:53.632Z,100706.53
2023-04-13T22:58:20.500Z,100716.91
2023-04-13T23:00:47.387Z,100709.94
2023-04-13T23:03:14.495Z,100722.91
2023-04-13T23:05:41.466Z,100715.94
2023-04-13T23:08:08.335Z,100723.78
2023-04-13T23:10:35.239Z,100727.22
2023-04-13T23:13:02.141Z,100727.22
2023-04-13T23:15:29.036Z,100729.81
2023-04-13T23:17:56.235Z,100731.53
2023-04-13T23:20:23.900Z,100741.06
2023-04-13T23:22:51.059Z,100738.47
2023-04-13T23:25:17.945Z,100741.91
2023-04-13T23:27:44.854Z,100745.34
2023-04-13T23:30:12.394Z,100742.75
2023-04-13T23:32:39.360Z,100739.28
2023-04-13T23:35:07.029Z,100743.59
2023-04-13T23:37:33.900Z,100749.66
2023-04-13T23:40:00.913Z,100739.22
2023-04-13T23:42:28.066Z,100738.34
2023-04-13T23:44:54.944Z,100744.41
2023-04-13T23:47:22.332Z,100735.75
2023-04-13T23:49:50.754Z,100741.81
2023-04-13T23:52:17.658Z,100741.78
2023-04-13T23:54:44.607Z,100731.38
2023-04-13T23:57:12.672Z,100727.00
2023-04-13T23:59:39.690Z,100723.56
